This is the latest recevied weather packets stored in our database for station/object F4FSZ-11. If no packets are shown the sender has not sent any weather packets the latest 10 day(s).
| Time | Temp. | Humidity | Pressure | Rain* | Wind** | Luminosity | Snow |
|---|---|---|---|---|---|---|---|
| 1777858425 | 11.67° C | 74% | 1008.1 hPa | - | - | - | - |
| 1777856625 | 11.67° C | 75% | 1008 hPa | - | - | - | - |
| 1777854825 | 11.67° C | 78% | 1008 hPa | - | - | - | - |
| 1777853025 | 11.67° C | 76% | 1008.1 hPa | - | - | - | - |
| 1777851225 | 11.67° C | 74% | 1008.2 hPa | - | - | - | - |
| 1777849424 | 11.67° C | 72% | 1008.4 hPa | - | - | - | - |
| 1777847624 | 11.67° C | 75% | 1008.5 hPa | - | - | - | - |
| 1777845824 | 12.22° C | 73% | 1008.4 hPa | - | - | - | - |
| 1777844024 | 12.78° C | 70% | 1008.4 hPa | - | - | - | - |
| 1777842224 | 12.78° C | 67% | 1008.3 hPa | - | - | - | - |
| 1777840424 | 13.89° C | 64% | 1008 hPa | - | - | - | - |
| 1777838624 | 13.89° C | 66% | 1007.8 hPa | - | - | - | - |
| 1777836824 | 13.89° C | 65% | 1007.6 hPa | - | - | - | - |
| 1777835024 | 14.44° C | 64% | 1007.7 hPa | - | - | - | - |
| 1777833223 | 15.56° C | 59% | 1007.5 hPa | - | - | - | - |
| 1777831423 | 19.44° C | 46% | 1007.3 hPa | - | - | - | - |
| 1777829623 | 17.22° C | 53% | 1007.7 hPa | - | - | - | - |
| 1777827823 | 17.22° C | 53% | 1007.8 hPa | - | - | - | - |
| 1777826023 | 17.78° C | 58% | 1008.2 hPa | - | - | - | - |
| 1777824223 | 17.22° C | 55% | 1008.6 hPa | - | - | - | - |
| 1777822423 | 18.33° C | 51% | 1008.9 hPa | - | - | - | - |
| 1777820623 | 18.33° C | 47% | 1009.2 hPa | - | - | - | - |
| 1777818823 | 18.33° C | 42% | 1009.2 hPa | - | - | - | - |
| 1777817022 | 18.33° C | 41% | 1009.5 hPa | - | - | - | - |
| 1777815222 | 19.44° C | 40% | 1009.4 hPa | - | - | - | - |
* Rain since midnight (hover to see other rain measurements)
** Current wind speed in m/s (hover to see current wind gust speed)